createdAt,value
2023-04-28T00:02:02.157Z,10.90
2023-04-28T00:04:30.346Z,10.80
2023-04-28T00:06:58.257Z,10.80
2023-04-28T00:09:26.058Z,10.80
2023-04-28T00:11:53.903Z,10.90
2023-04-28T00:14:21.568Z,10.80
2023-04-28T00:16:50.661Z,10.80
2023-04-28T00:19:18.424Z,10.80
2023-04-28T00:21:46.104Z,10.80
2023-04-28T00:24:13.968Z,10.80
2023-04-28T00:26:41.828Z,10.80
2023-04-28T00:29:09.521Z,10.80
2023-04-28T00:31:37.349Z,10.70
2023-04-28T00:34:06.385Z,10.80
2023-04-28T00:36:34.131Z,10.70
2023-04-28T00:39:01.818Z,10.70
2023-04-28T00:41:29.478Z,10.70
2023-04-28T00:43:57.166Z,10.70
2023-04-28T00:46:28.831Z,10.70
2023-04-28T00:48:57.185Z,10.60
2023-04-28T00:51:27.576Z,10.60
2023-04-28T00:53:55.571Z,10.60
2023-04-28T00:56:23.286Z,10.60
2023-04-28T00:58:50.950Z,10.60
2023-04-28T01:01:19.099Z,10.60
2023-04-28T01:03:46.946Z,10.50
2023-04-28T01:06:15.528Z,10.50
2023-04-28T01:08:44.786Z,10.50
2023-04-28T01:11:14.046Z,10.50
2023-04-28T01:13:41.772Z,10.50
2023-04-28T01:16:09.538Z,10.50
2023-04-28T01:18:37.617Z,10.50
2023-04-28T01:21:05.701Z,10.50
2023-04-28T01:23:33.510Z,10.50
2023-04-28T01:26:03.103Z,10.50
2023-04-28T01:28:30.833Z,10.50
2023-04-28T01:30:58.541Z,10.50
2023-04-28T01:33:26.303Z,10.50
2023-04-28T01:35:58.528Z,10.50
2023-04-28T01:38:26.293Z,10.50
2023-04-28T01:40:56.385Z,10.50
2023-04-28T01:43:25.475Z,10.50
2023-04-28T01:45:53.213Z,10.50
2023-04-28T01:48:20.936Z,10.40
2023-04-28T01:50:48.615Z,10.40
2023-04-28T01:53:20.415Z,10.40
2023-04-28T01:55:48.172Z,10.40
2023-04-28T01:58:15.903Z,10.40
2023-04-28T02:00:44.962Z,10.40
2023-04-28T02:03:12.969Z,10.30
2023-04-28T02:05:40.917Z,10.30
2023-04-28T02:08:08.653Z,10.30
2023-04-28T02:10:36.349Z,10.20
2023-04-28T02:13:04.080Z,10.30
2023-04-28T02:15:31.774Z,10.20
2023-04-28T02:18:00.908Z,10.20
2023-04-28T02:20:29.371Z,10.20
2023-04-28T02:22:57.584Z,10.20
2023-04-28T02:25:25.275Z,10.20
2023-04-28T02:27:52.984Z,10.10
2023-04-28T02:30:20.901Z,10.10
2023-04-28T02:32:49.533Z,10.10
2023-04-28T02:35:18.920Z,10.10
2023-04-28T02:37:46.644Z,10.00
2023-04-28T02:40:14.909Z,10.00
2023-04-28T02:42:42.641Z,10.00
2023-04-28T02:45:11.248Z,10.00
2023-04-28T02:47:39.024Z,10.00
2023-04-28T02:50:08.247Z,9.90
2023-04-28T02:52:37.310Z,9.90
2023-04-28T02:55:05.786Z,9.80
2023-04-28T02:57:33.511Z,9.80
2023-04-28T03:00:01.229Z,9.70
2023-04-28T03:02:28.994Z,9.70
2023-04-28T03:04:56.882Z,9.60
2023-04-28T03:07:24.969Z,9.60
2023-04-28T03:09:54.010Z,9.60
2023-04-28T03:12:21.697Z,9.60
2023-04-28T03:14:49.409Z,9.60
2023-04-28T03:17:17.395Z,9.60
2023-04-28T03:19:45.145Z,9.60
2023-04-28T03:22:12.885Z,9.60
2023-04-28T03:24:40.610Z,9.60
2023-04-28T03:27:09.651Z,9.50
2023-04-28T03:29:37.358Z,9.50
2023-04-28T03:32:05.204Z,9.50
2023-04-28T03:34:32.953Z,9.50
2023-04-28T03:37:00.699Z,9.50
2023-04-28T03:39:28.424Z,9.40
2023-04-28T03:41:56.129Z,9.40
2023-04-28T03:44:25.340Z,9.50
2023-04-28T03:46:53.042Z,9.50
2023-04-28T03:49:20.753Z,9.50
2023-04-28T03:51:49.952Z,9.40
2023-04-28T03:54:17.809Z,9.40
2023-04-28T03:56:46.703Z,9.40
2023-04-28T03:59:14.420Z,9.40
2023-04-28T04:01:43.488Z,9.40
2023-04-28T04:04:11.480Z,9.40
2023-04-28T04:06:39.413Z,9.40
2023-04-28T04:09:07.203Z,9.40
2023-04-28T04:11:37.135Z,9.30
2023-04-28T04:14:06.057Z,9.30
2023-04-28T04:16:33.814Z,9.30
2023-04-28T04:19:02.918Z,9.30
2023-04-28T04:21:31.674Z,9.30
2023-04-28T04:23:59.374Z,9.30
2023-04-28T04:26:27.118Z,9.30
2023-04-28T04:28:54.828Z,9.30
2023-04-28T04:31:22.753Z,9.30
2023-04-28T04:33:50.618Z,9.30
2023-04-28T04:36:19.753Z,9.30
2023-04-28T04:38:47.475Z,9.30
2023-04-28T04:41:15.221Z,9.30
2023-04-28T04:43:42.953Z,9.20
2023-04-28T04:46:10.724Z,9.20
2023-04-28T04:48:38.500Z,9.20
2023-04-28T04:51:07.027Z,9.20
2023-04-28T04:53:36.141Z,9.20
2023-04-28T04:56:04.002Z,9.20
2023-04-28T04:58:31.992Z,9.20
2023-04-28T05:00:59.721Z,9.20
2023-04-28T05:03:27.656Z,9.20
2023-04-28T05:05:55.658Z,9.20
2023-04-28T05:08:23.457Z,9.20
2023-04-28T05:10:52.506Z,9.30
2023-04-28T05:13:20.489Z,9.30
2023-04-28T05:15:48.268Z,9.30
2023-04-28T05:18:16.168Z,9.30
2023-04-28T05:20:43.875Z,9.30
2023-04-28T05:23:11.609Z,9.30
2023-04-28T05:25:39.374Z,9.30
2023-04-28T05:28:10.075Z,9.30
2023-04-28T05:30:37.817Z,9.30
2023-04-28T05:33:05.630Z,9.30
2023-04-28T05:35:33.434Z,9.30
2023-04-28T05:38:01.586Z,9.30
2023-04-28T05:40:29.461Z,9.30
2023-04-28T05:42:57.209Z,9.30
2023-04-28T05:45:26.270Z,9.30
2023-04-28T05:47:54.631Z,9.30
2023-04-28T05:50:22.623Z,9.30
2023-04-28T05:52:50.340Z,9.40
2023-04-28T05:55:18.194Z,9.30
2023-04-28T05:57:53.055Z,9.40
2023-04-28T06:00:21.655Z,9.30
2023-04-28T06:02:51.033Z,9.40
2023-04-28T06:05:19.295Z,9.30
2023-04-28T06:07:49.704Z,9.40
2023-04-28T06:10:18.100Z,9.40
2023-04-28T06:12:46.002Z,9.40
2023-04-28T06:15:13.765Z,9.40
2023-04-28T06:17:42.335Z,9.40
2023-04-28T06:20:13.779Z,9.40
2023-04-28T06:22:41.895Z,9.40
2023-04-28T06:25:10.508Z,9.40
2023-04-28T06:27:38.285Z,9.40
2023-04-28T06:30:07.246Z,9.40
2023-04-28T06:32:34.989Z,9.40
2023-04-28T06:35:02.780Z,9.50
2023-04-28T06:37:32.265Z,9.50
2023-04-28T06:39:59.964Z,9.50
2023-04-28T06:42:28.010Z,9.50
2023-04-28T06:44:55.903Z,9.50
2023-04-28T06:47:23.713Z,9.60
2023-04-28T06:49:51.559Z,9.60
2023-04-28T06:52:24.829Z,9.60
2023-04-28T06:54:59.152Z,9.60
2023-04-28T06:57:26.915Z,9.60
2023-04-28T06:59:54.715Z,9.70
2023-04-28T07:02:22.536Z,9.80
2023-04-28T07:04:50.700Z,9.80
2023-04-28T07:07:18.431Z,9.80
2023-04-28T07:09:46.279Z,9.80
2023-04-28T07:12:15.361Z,9.90
2023-04-28T07:14:43.062Z,9.90
2023-04-28T07:17:10.768Z,9.90
2023-04-28T07:19:38.478Z,10.00
2023-04-28T07:22:06.236Z,10.00
2023-04-28T07:24:34.011Z,10.00
2023-04-28T07:27:01.819Z,10.00
2023-04-28T07:29:34.039Z,10.10
2023-04-28T07:32:02.056Z,10.10
2023-04-28T07:34:29.923Z,10.20
2023-04-28T07:36:58.382Z,10.30
2023-04-28T07:39:26.182Z,10.30
2023-04-28T07:41:54.013Z,10.40
2023-04-28T07:44:22.267Z,10.40
2023-04-28T07:46:52.341Z,10.50
2023-04-28T07:49:20.361Z,10.50
2023-04-28T07:51:48.254Z,10.50
2023-04-28T07:54:16.430Z,10.60
2023-04-28T07:56:44.324Z,10.60
2023-04-28T07:59:12.047Z,10.60
2023-04-28T08:01:39.860Z,10.70
2023-04-28T08:04:09.202Z,10.70
2023-04-28T08:06:37.199Z,10.70
2023-04-28T08:09:06.030Z,10.80
2023-04-28T08:11:34.579Z,10.80
2023-04-28T08:14:03.316Z,10.80
2023-04-28T08:16:32.758Z,10.90
2023-04-28T08:19:00.699Z,10.90
2023-04-28T08:21:29.937Z,10.90
2023-04-28T08:23:57.622Z,10.90
2023-04-28T08:26:26.274Z,11.00
2023-04-28T08:28:54.327Z,11.00
2023-04-28T08:31:22.049Z,11.00
2023-04-28T08:33:51.127Z,11.00
2023-04-28T08:36:19.069Z,11.00
2023-04-28T08:38:48.202Z,11.00
2023-04-28T08:41:17.705Z,11.10
2023-04-28T08:43:45.631Z,11.10
2023-04-28T08:46:15.992Z,11.10
2023-04-28T08:48:46.420Z,11.10
2023-04-28T08:51:17.402Z,11.10
2023-04-28T08:54:14.905Z,11.10
2023-04-28T08:56:39.938Z,11.10
2023-04-28T08:59:08.099Z,11.20
2023-04-28T09:01:36.615Z,11.20
2023-04-28T09:04:04.979Z,11.20
2023-04-28T09:06:35.655Z,11.20
2023-04-28T09:09:22.749Z,11.40
2023-04-28T09:11:56.594Z,11.50
2023-04-28T09:14:24.656Z,11.80
2023-04-28T09:16:52.808Z,11.90
2023-04-28T09:19:21.130Z,11.90
2023-04-28T09:21:50.352Z,12.00
2023-04-28T09:24:31.541Z,12.00
2023-04-28T09:27:02.210Z,12.00
2023-04-28T09:29:30.211Z,12.00
2023-04-28T09:32:14.706Z,12.00
2023-04-28T09:34:47.185Z,12.10
2023-04-28T09:37:19.869Z,12.10
2023-04-28T09:39:49.417Z,12.10
2023-04-28T09:42:35.076Z,12.10
2023-04-28T09:45:03.587Z,12.10
2023-04-28T09:47:33.239Z,12.10
2023-04-28T09:50:02.857Z,12.10
2023-04-28T09:52:30.725Z,12.20
2023-04-28T09:54:59.548Z,12.20
2023-04-28T09:57:31.361Z,12.20
2023-04-28T10:00:01.087Z,12.20
2023-04-28T10:05:00.795Z,12.30
2023-04-28T10:07:30.775Z,12.30
2023-04-28T10:09:59.507Z,12.30
2023-04-28T10:12:27.293Z,12.40
2023-04-28T10:14:55.176Z,12.40
2023-04-28T10:17:25.410Z,12.50
2023-04-28T10:19:55.204Z,12.50
2023-04-28T10:22:35.455Z,12.60
2023-04-28T10:25:22.405Z,12.60
2023-04-28T10:27:51.278Z,12.60
2023-04-28T10:30:27.374Z,12.60
2023-04-28T10:36:04.114Z,12.60
2023-04-28T10:38:32.068Z,12.60
2023-04-28T10:41:02.506Z,12.60
2023-04-28T10:43:40.513Z,12.60
2023-04-28T10:46:09.806Z,12.60
2023-04-28T10:48:57.319Z,12.60
2023-04-28T10:51:35.453Z,12.60
2023-04-28T10:54:17.483Z,12.60
2023-04-28T10:57:16.273Z,12.70
2023-04-28T10:59:44.137Z,12.80
2023-04-28T11:02:47.088Z,12.80
2023-04-28T11:05:16.424Z,12.80
2023-04-28T11:08:29.888Z,12.80
2023-04-28T11:11:22.487Z,12.80
2023-04-28T11:13:51.064Z,12.80
2023-04-28T11:16:23.660Z,12.80
2023-04-28T11:18:55.464Z,12.80
2023-04-28T11:21:25.070Z,12.90
2023-04-28T11:23:53.431Z,12.90
2023-04-28T11:26:23.542Z,12.90
2023-04-28T11:28:53.052Z,12.90
2023-04-28T11:31:23.387Z,13.00
2023-04-28T11:33:56.030Z,13.00
2023-04-28T11:36:28.983Z,13.00
2023-04-28T11:38:57.753Z,13.10
2023-04-28T11:41:27.280Z,13.10
2023-04-28T11:43:55.439Z,13.10
2023-04-28T11:46:24.921Z,13.20
2023-04-28T11:49:02.775Z,13.20
2023-04-28T11:51:35.391Z,13.30
2023-04-28T11:54:03.881Z,13.30
2023-04-28T11:56:37.457Z,13.30
2023-04-28T11:59:08.641Z,13.40
2023-04-28T12:01:45.302Z,13.50
2023-04-28T12:04:14.140Z,13.60
2023-04-28T12:06:42.587Z,13.60
2023-04-28T12:09:17.851Z,13.70
2023-04-28T12:12:02.152Z,13.80
2023-04-28T12:14:31.985Z,13.90
2023-04-28T12:16:59.873Z,14.00
2023-04-28T12:19:27.648Z,14.10
2023-04-28T12:22:06.263Z,14.10
2023-04-28T12:24:35.772Z,14.20
2023-04-28T12:27:20.205Z,14.30
2023-04-28T12:29:48.662Z,14.30
2023-04-28T12:32:17.295Z,14.40
2023-04-28T12:34:47.357Z,14.40
2023-04-28T12:37:15.351Z,14.50
2023-04-28T12:39:43.607Z,14.60
2023-04-28T12:42:11.730Z,14.70
2023-04-28T12:44:40.987Z,14.80
2023-04-28T12:47:11.099Z,14.90
2023-04-28T12:49:39.398Z,14.90
2023-04-28T12:52:07.744Z,15.00
2023-04-28T12:54:35.689Z,15.00
2023-04-28T12:57:03.968Z,15.00
2023-04-28T12:59:32.643Z,15.10
2023-04-28T13:02:01.823Z,15.10
2023-04-28T13:04:30.047Z,15.10
2023-04-28T13:06:58.678Z,15.20
2023-04-28T13:09:27.132Z,15.20
2023-04-28T13:11:55.108Z,15.30
2023-04-28T13:14:23.105Z,15.30
2023-04-28T13:16:51.726Z,15.40
2023-04-28T13:19:20.830Z,15.40
2023-04-28T13:21:48.633Z,15.50
2023-04-28T13:24:16.756Z,15.50
2023-04-28T13:26:45.234Z,15.50
2023-04-28T13:29:14.260Z,15.50
2023-04-28T13:31:42.442Z,15.50
2023-04-28T13:34:15.782Z,15.60
2023-04-28T13:36:45.539Z,15.60
2023-04-28T13:39:14.630Z,15.70
2023-04-28T13:41:42.695Z,15.70
2023-04-28T13:44:10.567Z,15.70
2023-04-28T13:46:38.506Z,15.80
2023-04-28T13:49:06.419Z,15.80
2023-04-28T13:51:34.622Z,15.70
2023-04-28T13:54:05.283Z,15.70
2023-04-28T13:56:33.131Z,15.70
2023-04-28T13:59:01.047Z,15.80
2023-04-28T14:01:29.048Z,15.90
2023-04-28T14:03:56.979Z,16.10
2023-04-28T14:06:24.963Z,16.40
2023-04-28T14:08:52.965Z,16.60
2023-04-28T14:11:22.479Z,16.80
2023-04-28T14:13:50.425Z,17.00
2023-04-28T14:16:18.533Z,17.10
2023-04-28T14:18:46.429Z,17.20
2023-04-28T14:21:14.229Z,17.40
2023-04-28T14:23:42.143Z,17.50
2023-04-28T14:26:09.940Z,17.60
2023-04-28T14:28:39.133Z,17.80
2023-04-28T14:31:08.626Z,17.90
2023-04-28T14:33:36.972Z,18.00
2023-04-28T14:36:05.267Z,18.00
2023-04-28T14:38:33.137Z,18.00
2023-04-28T14:41:01.182Z,18.00
2023-04-28T14:43:28.954Z,18.00
2023-04-28T14:45:58.440Z,18.10
2023-04-28T14:48:26.763Z,18.10
2023-04-28T14:50:54.600Z,18.20
2023-04-28T14:53:22.577Z,18.40
2023-04-28T14:55:50.446Z,18.40
2023-04-28T14:58:18.219Z,18.50
2023-04-28T15:00:46.038Z,18.70
2023-04-28T15:03:15.417Z,18.80
2023-04-28T15:05:43.934Z,18.80
2023-04-28T15:08:12.573Z,18.80
2023-04-28T15:10:41.170Z,18.70
2023-04-28T15:13:09.007Z,18.60
2023-04-28T15:15:36.975Z,18.50
2023-04-28T15:18:05.228Z,18.50
2023-04-28T15:20:37.226Z,18.40
2023-04-28T15:23:05.562Z,18.30
2023-04-28T15:25:33.346Z,18.30
2023-04-28T15:28:01.259Z,18.30
2023-04-28T15:30:29.106Z,18.30
2023-04-28T15:32:56.900Z,18.30
2023-04-28T15:35:24.730Z,18.30
2023-04-28T15:37:55.431Z,18.20
2023-04-28T15:40:23.208Z,18.20
2023-04-28T15:42:52.901Z,18.20
2023-04-28T15:45:21.775Z,18.30
2023-04-28T15:47:50.717Z,18.30
2023-04-28T15:50:20.390Z,18.40
2023-04-28T15:52:50.011Z,18.40
2023-04-28T15:55:22.230Z,18.40
2023-04-28T15:57:51.049Z,18.40
2023-04-28T16:00:19.166Z,18.30
2023-04-28T16:02:47.166Z,18.30
2023-04-28T16:05:15.217Z,18.30
2023-04-28T16:07:44.239Z,18.20
2023-04-28T16:10:13.734Z,18.20
2023-04-28T16:12:43.757Z,18.00
2023-04-28T16:15:13.530Z,18.00
2023-04-28T16:17:42.343Z,17.80
2023-04-28T16:20:12.036Z,17.70
2023-04-28T16:22:40.810Z,17.60
2023-04-28T16:25:09.460Z,17.60
2023-04-28T16:27:38.014Z,17.50
2023-04-28T16:30:08.799Z,17.40
2023-04-28T16:32:38.223Z,17.40
2023-04-28T16:35:11.227Z,17.40
2023-04-28T16:37:40.804Z,17.30
2023-04-28T16:40:09.720Z,17.20
2023-04-28T16:42:37.893Z,17.20
2023-04-28T16:45:08.148Z,17.10
2023-04-28T16:47:35.984Z,17.00
2023-04-28T16:50:03.781Z,16.90
2023-04-28T16:52:31.631Z,16.80
2023-04-28T16:55:00.433Z,16.70
2023-04-28T16:57:28.275Z,16.60
2023-04-28T16:59:56.043Z,16.50
2023-04-28T17:02:26.075Z,16.50
2023-04-28T17:04:54.234Z,16.50
2023-04-28T17:07:24.058Z,16.40
2023-04-28T17:09:53.723Z,16.30
2023-04-28T17:12:23.211Z,16.20
2023-04-28T17:14:52.677Z,16.20
2023-04-28T17:17:20.508Z,16.10
2023-04-28T17:19:49.777Z,16.10
2023-04-28T17:22:17.825Z,16.10
2023-04-28T17:24:45.878Z,16.00
2023-04-28T17:27:14.680Z,16.00
2023-04-28T17:29:42.851Z,15.90
2023-04-28T17:32:11.076Z,15.80
2023-04-28T17:34:38.970Z,15.80
2023-04-28T17:37:08.133Z,15.70
2023-04-28T17:39:35.951Z,15.70
2023-04-28T17:42:04.747Z,15.70
2023-04-28T17:44:32.525Z,15.60
2023-04-28T17:47:01.127Z,15.60
2023-04-28T17:49:29.081Z,15.50
2023-04-28T17:51:56.857Z,15.40
2023-04-28T17:54:26.093Z,15.40
2023-04-28T17:56:54.649Z,15.40
2023-04-28T17:59:22.442Z,15.30
2023-04-28T18:01:50.397Z,15.20
2023-04-28T18:04:18.244Z,15.20
2023-04-28T18:06:46.086Z,15.10
2023-04-28T18:09:14.296Z,15.00
2023-04-28T18:11:43.835Z,15.00
2023-04-28T18:14:11.573Z,15.00
2023-04-28T18:16:39.458Z,15.00
2023-04-28T18:19:08.229Z,15.00
2023-04-28T18:21:37.313Z,14.90
2023-04-28T18:24:05.183Z,14.90
2023-04-28T18:26:32.892Z,14.80
2023-04-28T18:29:02.028Z,14.80
2023-04-28T18:31:30.050Z,14.80
2023-04-28T18:33:59.353Z,14.70
2023-04-28T18:36:27.615Z,14.70
2023-04-28T18:38:57.610Z,14.70
2023-04-28T18:41:25.338Z,14.70
2023-04-28T18:43:53.261Z,14.60
2023-04-28T18:46:22.463Z,14.60
2023-04-28T18:48:50.314Z,14.50
2023-04-28T18:51:18.387Z,14.50
2023-04-28T18:53:46.544Z,14.50
2023-04-28T18:56:14.393Z,14.50
2023-04-28T18:58:42.175Z,14.50
2023-04-28T19:01:14.313Z,14.40
2023-04-28T19:03:43.968Z,14.40
2023-04-28T19:06:12.694Z,14.30
2023-04-28T19:08:41.363Z,14.30
2023-04-28T19:11:09.686Z,14.30
2023-04-28T19:13:37.864Z,14.20
2023-04-28T19:16:06.434Z,14.10
2023-04-28T19:18:34.444Z,14.10
2023-04-28T19:21:04.643Z,14.10
2023-04-28T19:23:33.653Z,14.00
2023-04-28T19:26:01.944Z,13.90
2023-04-28T19:28:29.904Z,13.90
2023-04-28T19:30:59.160Z,13.90
2023-04-28T19:33:28.447Z,13.80
2023-04-28T19:35:56.603Z,13.80
2023-04-28T19:38:25.738Z,13.80
2023-04-28T19:41:00.794Z,13.70
2023-04-28T19:43:31.505Z,13.70
2023-04-28T19:46:00.362Z,13.70
2023-04-28T19:48:28.121Z,13.70
2023-04-28T19:50:56.318Z,13.70
2023-04-28T19:53:25.410Z,13.60
2023-04-28T19:55:53.132Z,13.60
2023-04-28T19:58:21.290Z,13.70
2023-04-28T20:00:49.001Z,13.60
2023-04-28T20:03:17.422Z,13.60
2023-04-28T20:05:46.169Z,13.60
2023-04-28T20:08:14.065Z,13.60
2023-04-28T20:10:43.362Z,13.60
2023-04-28T20:13:11.149Z,13.50
2023-04-28T20:15:39.045Z,13.50
2023-04-28T20:18:06.907Z,13.50
2023-04-28T20:20:34.773Z,13.50
2023-04-28T20:23:02.509Z,13.50
2023-04-28T20:25:30.228Z,13.50
2023-04-28T20:27:59.320Z,13.50
2023-04-28T20:30:27.546Z,13.40
2023-04-28T20:32:55.288Z,13.40
2023-04-28T20:35:23.213Z,13.40
2023-04-28T20:37:50.922Z,13.40
2023-04-28T20:40:18.858Z,13.40
2023-04-28T20:42:46.548Z,13.40
2023-04-28T20:45:15.846Z,13.40
2023-04-28T20:47:43.631Z,13.40
2023-04-28T20:50:12.783Z,13.40
2023-04-28T20:52:40.542Z,13.30
2023-04-28T20:55:11.835Z,13.30
2023-04-28T20:57:39.584Z,13.30
2023-04-28T21:00:08.820Z,13.30
2023-04-28T21:02:38.077Z,13.20
2023-04-28T21:05:06.324Z,13.20
2023-04-28T21:07:34.165Z,13.20
2023-04-28T21:10:01.891Z,13.20
2023-04-28T21:12:29.681Z,13.20
2023-04-28T21:14:59.368Z,13.20
2023-04-28T21:17:27.150Z,13.20
2023-04-28T21:19:57.291Z,13.20
2023-04-28T21:22:25.063Z,13.10
2023-04-28T21:24:54.366Z,13.10
2023-04-28T21:27:22.072Z,13.10
2023-04-28T21:29:50.011Z,13.10
2023-04-28T21:32:17.985Z,13.10
2023-04-28T21:34:48.229Z,13.10
2023-04-28T21:37:17.334Z,13.10
2023-04-28T21:39:45.027Z,13.00
2023-04-28T21:42:12.883Z,13.00
2023-04-28T21:44:40.795Z,13.00
2023-04-28T21:47:08.904Z,13.00
2023-04-28T21:49:36.614Z,13.00
2023-04-28T21:52:04.903Z,13.00
2023-04-28T21:54:34.001Z,13.00
2023-04-28T21:57:01.846Z,12.90
2023-04-28T21:59:30.004Z,12.90
2023-04-28T22:01:58.532Z,12.90
2023-04-28T22:04:26.625Z,12.90
2023-04-28T22:06:54.568Z,12.90
2023-04-28T22:09:22.450Z,12.90
2023-04-28T22:11:52.177Z,12.80
2023-04-28T22:14:35.485Z,12.70
2023-04-28T22:17:07.596Z,12.70
2023-04-28T22:19:35.305Z,12.60
2023-04-28T22:22:03.112Z,12.60
2023-04-28T22:24:30.806Z,12.60
2023-04-28T22:26:59.954Z,12.50
2023-04-28T22:29:27.895Z,12.50
2023-04-28T22:31:55.602Z,12.50
2023-04-28T22:34:23.344Z,12.40
2023-04-28T22:36:51.050Z,12.40
2023-04-28T22:39:18.747Z,12.40
2023-04-28T22:41:46.584Z,12.40
2023-04-28T22:44:15.713Z,12.40
2023-04-28T22:46:43.687Z,12.40
2023-04-28T22:49:11.512Z,12.40
2023-04-28T22:51:39.214Z,12.30
2023-04-28T22:54:06.943Z,12.30
2023-04-28T22:56:34.661Z,12.30
2023-04-28T22:59:03.038Z,12.30
2023-04-28T23:01:32.176Z,12.30
2023-04-28T23:04:00.155Z,12.30
2023-04-28T23:06:29.019Z,12.30
2023-04-28T23:08:57.026Z,12.30
2023-04-28T23:11:25.347Z,12.30
2023-04-28T23:13:53.284Z,12.30
2023-04-28T23:16:21.309Z,12.30
2023-04-28T23:18:50.405Z,12.30
2023-04-28T23:21:18.100Z,12.30
2023-04-28T23:23:46.197Z,12.20
2023-04-28T23:26:13.903Z,12.20
2023-04-28T23:28:41.582Z,12.20
2023-04-28T23:31:09.304Z,12.20
2023-04-28T23:33:37.889Z,12.20
2023-04-28T23:36:07.760Z,12.20
2023-04-28T23:38:35.468Z,12.20
2023-04-28T23:41:06.311Z,12.20
2023-04-28T23:43:34.018Z,12.20
2023-04-28T23:46:01.740Z,12.10
2023-04-28T23:48:29.462Z,12.10
2023-04-28T23:50:57.388Z,12.10
2023-04-28T23:53:26.791Z,12.00
2023-04-28T23:55:54.474Z,12.00
2023-04-28T23:58:22.387Z,12.00
